Kettle Falls, Washington
Current Conditions -  °F | °C
As of 9:00 AM on Friday 31 Oct 2014 (Local Time) from CYCG Reporting Station
Haze Haze  
Wind Chill: 44°   Ceiling: 1200
Heat Index: 46°   Visibility: 6mi
Dew Point: 46°   Wind: 6mph
Humidity: 100%   Direction: 190°S
Pressure: 29.76"   Gusts: NA
Location:  48.61°N, 118.06°W
Report Text: CYCG 311600Z 19005KT 130V200 6SM BR FEW003 BKN012 BKN030 OVC065 08/08 A2976 RMK SF1SC5SC1SC1 SLP084
Loading
Personal Weather Stations






























Interactive Weather Map New forecast layout! Learn more

10-Day Weather Forecast

Advertisements
Track Severe Weather on mobile